Time;durP1;ratioP1;P1;durP2;ratioP2;P2;SDS_P1;SDS_P2;PMS_P1;PMS_P2;Temp;Humidity;BMP_temperature;BMP_pressure;BME280_temperature;BME280_humidity;BME280_pressure;Samples;Min_cycle;Max_cycle;Signal;HPM_P1;HPM_P2
2021/07/05 00:01:55;;;;;;;;;;;;;;;;;;5110832;28;19912;-82
2021/07/05 00:04:20;;;;;;;;;;;;;;;;;;5110232;28;19912;-83
2021/07/05 00:06:46;;;;;;;;;;;;;;;;;;5101139;28;20053;-81
2021/07/05 00:09:12;;;;;;;;;;;;;;;;;;5098396;28;20274;-82
2021/07/05 00:11:39;;;;;;;;;;;;;;;;;;5111214;28;19968;-82
2021/07/05 00:14:05;;;;;;;;;;;;;;;;;;5109968;28;19991;-84
2021/07/05 00:16:31;;;;;;;;;;;;;;;;;;5110307;28;20034;-82
2021/07/05 00:18:57;;;;;;;;;;;;;;;;;;5111250;28;19908;-82
2021/07/05 00:21:22;;;;;;;;;;;;;;;;;;5110855;28;19999;-82
2021/07/05 00:23:48;;;;;;;;;;;;;;;;;;5110210;28;19911;-82
2021/07/05 00:26:14;;;;;;;;;;;;;;;;;;5097582;28;19915;-82
2021/07/05 00:28:40;;;;;;;;;;;;;;;;;;5110885;28;19927;-82
2021/07/05 00:31:06;;;;;;;;;;;;;;;;;;5110557;28;19907;-83
2021/07/05 00:33:35;;;;;;;;;;;;;;;;;;5110411;28;20006;-82
2021/07/05 00:36:01;;;;;;;;;;;;;;;;;;5109305;28;20518;-82
2021/07/05 00:38:27;;;;;;;;;;;;;;;;;;5109453;28;19938;-82
2021/07/05 00:40:53;;;;;;;;;;;;;;;;;;5111574;28;19904;-83
2021/07/05 00:43:19;;;;;;;;;;;;;;;;;;5110911;28;19911;-82
2021/07/05 00:45:45;;;;;;;;;;;;;;;;;;5086687;28;20440;-83
2021/07/05 00:48:11;;;;;;;;;;;;;;;;;;5109647;28;19916;-82
2021/07/05 00:50:37;;;;;;;;;;;;;;;;;;5110806;28;19950;-82
2021/07/05 00:53:02;;;;;;;;;;;;;;;;;;5110568;28;20388;-82
2021/07/05 00:55:28;;;;;;;;;;;;;;;;;;5091060;28;19998;-81
2021/07/05 00:57:54;;;;;;;;;;;;;;;;;;5110417;28;20018;-84
2021/07/05 01:00:20;;;;;;;;;;;;;;;;;;5109965;28;19912;-83
2021/07/05 01:02:46;;;;;;;;;;;;;;;;;;5110382;28;19911;-83
2021/07/05 01:05:12;;;;;;;;;;;;;;;;;;5109683;28;19912;-81
2021/07/05 01:07:38;;;;;;;;;;;;;;;;;;5107639;28;19919;-82
2021/07/05 01:10:04;;;;;;;;;;;;;;;;;;5109717;28;19904;-82
2021/07/05 01:12:30;;;;;;;;;;;;;;;;;;5110380;28;20049;-84
2021/07/05 01:14:56;;;;;;;;;;;;;;;;;;5110028;28;19908;-83
2021/07/05 01:17:22;;;;;;;;;;;;;;;;;;5110624;28;20062;-82
2021/07/05 01:19:47;;;;;;;;;;;;;;;;;;5107832;28;19909;-80
2021/07/05 01:22:13;;;;;;;;;;;;;;;;;;5110449;28;20497;-83
2021/07/05 01:24:39;;;;;;;;;;;;;;;;;;5113109;28;19943;-84
2021/07/05 01:27:05;;;;;;;;;;;;;;;;;;5110185;28;20270;-83
2021/07/05 01:29:31;;;;;;;;;;;;;;;;;;5110475;28;19919;-82
2021/07/05 01:31:57;;;;;;;;;;;;;;;;;;5108949;28;20417;-83
2021/07/05 01:34:23;;;;;;;;;;;;;;;;;;5104297;28;19908;-82
2021/07/05 01:36:49;;;;;;;;;;;;;;;;;;5110730;28;19908;-83
2021/07/05 01:39:14;;;;;;;;;;;;;;;;;;5110102;28;19911;-83
2021/07/05 01:41:40;;;;;;;;;;;;;;;;;;5108517;28;20424;-83
2021/07/05 01:44:06;;;;;;;;;;;;;;;;;;5108183;28;19940;-81
2021/07/05 01:46:32;;;;;;;;;;;;;;;;;;5098785;28;20384;-82
2021/07/05 01:48:58;;;;;;;;;;;;;;;;;;5111342;28;19923;-81
2021/07/05 01:51:24;;;;;;;;;;;;;;;;;;5112559;28;19915;-82
2021/07/05 01:53:50;;;;;;;;;;;;;;;;;;5107548;28;19915;-83
2021/07/05 01:56:16;;;;;;;;;;;;;;;;;;5112229;28;20246;-81
2021/07/05 01:58:42;;;;;;;;;;;;;;;;;;5113115;28;20019;-81
2021/07/05 02:01:08;;;;;;;;;;;;;;;;;;5113759;28;19961;-82
2021/07/05 02:03:34;;;;;;;;;;;;;;;;;;5111760;28;19912;-82
2021/07/05 02:06:00;;;;;;;;;;;;;;;;;;5114095;28;19969;-83
2021/07/05 02:08:26;;;;;;;;;;;;;;;;;;5113186;28;19916;-82
2021/07/05 02:10:52;;;;;;;;;;;;;;;;;;5113097;28;20233;-82
2021/07/05 02:13:17;;;;;;;;;;;;;;;;;;5107222;28;19908;-82
2021/07/05 02:15:43;;;;;;;;;;;;;;;;;;5113492;28;19915;-83
2021/07/05 02:18:09;;;;;;;;;;;;;;;;;;5103174;28;19915;-83
2021/07/05 02:20:35;;;;;;;;;;;;;;;;;;5095406;28;20364;-83
2021/07/05 02:23:01;;;;;;;;;;;;;;;;;;5094746;28;19915;-83
2021/07/05 02:25:27;;;;;;;;;;;;;;;;;;5112345;28;19916;-81
2021/07/05 02:27:53;;;;;;;;;;;;;;;;;;5111683;28;20040;-82
2021/07/05 02:30:19;;;;;;;;;;;;;;;;;;5113241;28;20289;-83
2021/07/05 02:32:45;;;;;;;;;;;;;;;;;;5111895;28;19950;-82
2021/07/05 02:35:11;;;;;;;;;;;;;;;;;;5102618;28;19908;-83
2021/07/05 02:37:37;;;;;;;;;;;;;;;;;;5115753;28;19925;-83
2021/07/05 02:40:03;;;;;;;;;;;;;;;;;;5112337;28;20323;-84
2021/07/05 02:42:29;;;;;;;;;;;;;;;;;;5109478;28;20326;-82
2021/07/05 02:44:55;;;;;;;;;;;;;;;;;;5112054;28;19911;-83
2021/07/05 02:47:21;;;;;;;;;;;;;;;;;;5112794;28;19951;-83
2021/07/05 02:49:47;;;;;;;;;;;;;;;;;;5111989;28;19919;-81
2021/07/05 02:52:13;;;;;;;;;;;;;;;;;;5111791;28;19918;-82
2021/07/05 02:54:38;;;;;;;;;;;;;;;;;;5112789;28;19908;-82
2021/07/05 02:57:05;;;;;;;;;;;;;;;;;;5091402;28;19934;-82
2021/07/05 02:59:31;;;;;;;;;;;;;;;;;;5112162;28;19912;-81
2021/07/05 03:01:57;;;;;;;;;;;;;;;;;;5108513;28;19907;-83
2021/07/05 03:04:23;;;;;;;;;;;;;;;;;;5112341;28;19998;-82
2021/07/05 03:06:49;;;;;;;;;;;;;;;;;;5111670;28;19903;-82
2021/07/05 03:09:15;;;;;;;;;;;;;;;;;;5111939;28;19918;-81
2021/07/05 03:11:41;;;;;;;;;;;;;;;;;;5111675;28;20011;-81
2021/07/05 03:14:06;;;;;;;;;;;;;;;;;;5111889;28;19915;-82
2021/07/05 03:16:32;;;;;;;;;;;;;;;;;;5112372;28;19914;-82
2021/07/05 03:18:58;;;;;;;;;;;;;;;;;;5112180;28;20014;-82
2021/07/05 03:21:24;;;;;;;;;;;;;;;;;;5107806;28;20286;-82
2021/07/05 03:23:50;;;;;;;;;;;;;;;;;;5091743;28;19904;-81
2021/07/05 03:26:16;;;;;;;;;;;;;;;;;;5107309;28;20334;-83
2021/07/05 03:28:42;;;;;;;;;;;;;;;;;;5110844;28;19955;-82
2021/07/05 03:31:08;;;;;;;;;;;;;;;;;;5111788;28;19908;-83
2021/07/05 03:33:34;;;;;;;;;;;;;;;;;;5111353;28;19994;-84
2021/07/05 03:35:59;;;;;;;;;;;;;;;;;;5103602;28;19961;-82
2021/07/05 03:38:25;;;;;;;;;;;;;;;;;;5110886;28;20570;-83
2021/07/05 03:40:51;;;;;;;;;;;;;;;;;;5111988;28;19908;-83
2021/07/05 03:43:17;;;;;;;;;;;;;;;;;;5092797;28;19914;-81
2021/07/05 03:45:43;;;;;;;;;;;;;;;;;;5104273;28;19923;-82
2021/07/05 03:48:10;;;;;;;;;;;;;;;;;;5111459;28;19916;-83
2021/07/05 03:50:36;;;;;;;;;;;;;;;;;;5109253;28;20401;-83
2021/07/05 03:53:01;;;;;;;;;;;;;;;;;;5094942;28;19919;-82
2021/07/05 03:55:29;;;;;;;;;;;;;;;;;;5095046;28;19915;-82
2021/07/05 03:57:55;;;;;;;;;;;;;;;;;;5110821;28;20016;-83
2021/07/05 04:00:20;;;;;;;;;;;;;;;;;;5110583;28;19950;-82
2021/07/05 04:02:47;;;;;;;;;;;;;;;;;;5111019;28;20326;-82
2021/07/05 04:05:13;;;;;;;;;;;;;;;;;;5110135;28;19908;-83
2021/07/05 04:07:41;;;;;;;;;;;;;;;;;;5111264;28;19915;-83
2021/07/05 04:10:07;;;;;;;;;;;;;;;;;;5110566;28;19961;-84
2021/07/05 04:12:34;;;;;;;;;;;;;;;;;;5110770;28;20307;-83
2021/07/05 04:15:00;;;;;;;;;;;;;;;;;;5110541;28;20081;-82
2021/07/05 04:17:25;;;;;;;;;;;;;;;;;;5092943;28;20352;-83
2021/07/05 04:19:51;;;;;;;;;;;;;;;;;;5110293;28;19908;-83
2021/07/05 04:22:17;;;;;;;;;;;;;;;;;;5109032;28;19911;-83
2021/07/05 04:24:43;;;;;;;;;;;;;;;;;;5110330;28;20011;-82
2021/07/05 04:27:09;;;;;;;;;;;;;;;;;;5110563;28;19911;-83
2021/07/05 04:29:35;;;;;;;;;;;;;;;;;;5110585;28;19982;-82
2021/07/05 04:32:01;;;;;;;;;;;;;;;;;;5110065;28;19907;-83
2021/07/05 04:34:27;;;;;;;;;;;;;;;;;;5096449;28;20277;-83
2021/07/05 04:36:52;;;;;;;;;;;;;;;;;;5109432;28;19998;-82
2021/07/05 04:39:18;;;;;;;;;;;;;;;;;;5111063;28;19929;-81
2021/07/05 04:41:44;;;;;;;;;;;;;;;;;;5110994;28;19903;-82
2021/07/05 04:44:13;;;;;;;;;;;;;;;;;;5094032;28;19926;-82
2021/07/05 04:46:45;;;;;;;;;;;;;;;;;;5091382;28;19904;-83
2021/07/05 04:49:11;;;;;;;;;;;;;;;;;;5107558;28;19919;-83
2021/07/05 04:51:37;;;;;;;;;;;;;;;;;;5110796;28;20334;-84
2021/07/05 04:54:02;;;;;;;;;;;;;;;;;;5108793;28;19911;-80
2021/07/05 04:56:28;;;;;;;;;;;;;;;;;;5111184;28;19939;-80
2021/07/05 04:58:54;;;;;;;;;;;;;;;;;;5109805;28;19952;-82
2021/07/05 05:01:20;;;;;;;;;;;;;;;;;;5110669;28;19904;-82
2021/07/05 05:03:46;;;;;;;;;;;;;;;;;;5107490;28;19918;-82
2021/07/05 05:06:12;;;;;;;;;;;;;;;;;;5107117;28;20419;-82
2021/07/05 05:08:38;;;;;;;;;;;;;;;;;;5111744;28;19915;-83
2021/07/05 05:11:04;;;;;;;;;;;;;;;;;;5110677;28;19903;-81
2021/07/05 05:13:30;;;;;;;;;;;;;;;;;;5099932;28;19908;-82
2021/07/05 05:15:55;;;;;;;;;;;;;;;;;;5101767;28;19969;-83
2021/07/05 05:18:21;;;;;;;;;;;;;;;;;;5112644;28;19911;-81
2021/07/05 05:20:47;;;;;;;;;;;;;;;;;;5094615;28;19990;-82
2021/07/05 05:23:13;;;;;;;;;;;;;;;;;;5109918;28;19912;-82
2021/07/05 05:25:39;;;;;;;;;;;;;;;;;;5113873;28;19903;-81
2021/07/05 05:28:05;;;;;;;;;;;;;;;;;;5113936;28;19915;-84
2021/07/05 05:30:31;;;;;;;;;;;;;;;;;;5114742;28;19915;-83
2021/07/05 05:32:57;;;;;;;;;;;;;;;;;;5113220;28;19999;-82
2021/07/05 05:35:23;;;;;;;;;;;;;;;;;;5108417;28;19956;-77
2021/07/05 05:37:48;;;;;;;;;;;;;;;;;;5094589;28;19904;-78
2021/07/05 05:40:14;;;;;;;;;;;;;;;;;;5114135;28;19994;-77
2021/07/05 05:42:40;;;;;;;;;;;;;;;;;;5106468;28;20010;-78
2021/07/05 05:45:06;;;;;;;;;;;;;;;;;;5093505;28;20354;-79
2021/07/05 05:47:32;;;;;;;;;;;;;;;;;;5093037;28;20318;-79
2021/07/05 05:49:58;;;;;;;;;;;;;;;;;;5113000;28;20007;-80
2021/07/05 05:52:24;;;;;;;;;;;;;;;;;;5110451;28;19912;-80
2021/07/05 05:54:50;;;;;;;;;;;;;;;;;;5113339;28;19908;-81
2021/07/05 05:57:25;;;;;;;;;;;;;;;;;;5113163;28;20335;-81
2021/07/05 05:59:51;;;;;;;;;;;;;;;;;;5113542;28;19912;-79
2021/07/05 06:02:17;;;;;;;;;;;;;;;;;;5100758;28;19912;-82
2021/07/05 06:04:43;;;;;;;;;;;;;;;;;;5095540;28;19919;-81
2021/07/05 06:07:09;;;;;;;;;;;;;;;;;;5113115;28;20047;-83
2021/07/05 06:09:35;;;;;;;;;;;;;;;;;;5113276;28;19950;-82
2021/07/05 06:12:01;;;;;;;;;;;;;;;;;;5107073;28;20402;-84
2021/07/05 06:14:27;;;;;;;;;;;;;;;;;;5104202;28;20000;-85
2021/07/05 06:16:52;;;;;;;;;;;;;;;;;;5106391;28;20316;-82
2021/07/05 06:19:18;;;;;;;;;;;;;;;;;;5108672;28;19907;-82
2021/07/05 06:21:44;;;;;;;;;;;;;;;;;;5111324;28;20097;-83
2021/07/05 06:24:10;;;;;;;;;;;;;;;;;;5113170;28;19904;-82
2021/07/05 06:26:36;;;;;;;;;;;;;;;;;;5112382;28;20380;-82
2021/07/05 06:29:02;;;;;;;;;;;;;;;;;;5112138;28;19960;-82
2021/07/05 06:31:29;;;;;;;;;;;;;;;;;;5094535;28;20021;-81
2021/07/05 06:33:55;;;;;;;;;;;;;;;;;;5111327;28;19941;-84
2021/07/05 06:36:20;;;;;;;;;;;;;;;;;;5102761;28;19912;-83
2021/07/05 06:38:47;;;;;;;;;;;;;;;;;;5104787;28;19947;-82
2021/07/05 06:41:13;;;;;;;;;;;;;;;;;;5111582;28;19916;-81
2021/07/05 06:43:39;;;;;;;;;;;;;;;;;;5108690;28;19915;-80
2021/07/05 06:46:05;;;;;;;;;;;;;;;;;;5096657;28;20227;-80
2021/07/05 06:48:30;;;;;;;;;;;;;;;;;;5110880;28;20016;-81
2021/07/05 06:50:56;;;;;;;;;;;;;;;;;;5112130;28;19933;-81
2021/07/05 06:53:22;;;;;;;;;;;;;;;;;;5097070;28;20420;-80
2021/07/05 06:55:48;;;;;;;;;;;;;;;;;;5112138;28;20010;-81
2021/07/05 06:58:14;;;;;;;;;;;;;;;;;;5112046;28;19922;-79
2021/07/05 07:00:40;;;;;;;;;;;;;;;;;;5112461;28;19916;-83
2021/07/05 07:03:06;;;;;;;;;;;;;;;;;;5111459;28;20285;-83
2021/07/05 07:05:34;;;;;;;;;;;;;;;;;;5112888;28;19915;-83
2021/07/05 07:08:00;;;;;;;;;;;;;;;;;;5112710;28;20258;-82
2021/07/05 07:10:26;;;;;;;;;;;;;;;;;;5112083;28;19904;-83
2021/07/05 07:12:54;;;;;;;;;;;;;;;;;;5109916;28;19915;-84
2021/07/05 07:15:23;;;;;;;;;;;;;;;;;;5114936;27;19940;-81
2021/07/05 07:17:53;;;;;;;;;;;;;;;;;;5110923;28;19938;-80
2021/07/05 07:20:19;;;;;;;;;;;;;;;;;;5110270;28;19926;-81
2021/07/05 07:22:45;;;;;;;;;;;;;;;;;;5108400;28;19997;-82
2021/07/05 07:25:11;;;;;;;;;;;;;;;;;;5104550;28;20289;-82
2021/07/05 07:27:36;;;;;;;;;;;;;;;;;;5109810;28;19914;-81
2021/07/05 07:30:02;;;;;;;;;;;;;;;;;;5108715;28;20474;-80
2021/07/05 07:32:28;;;;;;;;;;;;;;;;;;5106418;28;19946;-83
2021/07/05 07:34:54;;;;;;;;;;;;;;;;;;5108488;28;20327;-84
2021/07/05 07:37:20;;;;;;;;;;;;;;;;;;5108316;28;20262;-82
2021/07/05 07:39:54;;;;;;;;;;;;;;;;;;5109196;28;20018;-81
2021/07/05 07:42:20;;;;;;;;;;;;;;;;;;5105395;28;20078;-80
2021/07/05 07:44:45;;;;;;;;;;;;;;;;;;5108289;28;20007;-79
2021/07/05 07:47:11;;;;;;;;;;;;;;;;;;5108972;28;19918;-80
2021/07/05 07:49:37;;;;;;;;;;;;;;;;;;5108336;28;19937;-81
2021/07/05 07:52:04;;;;;;;;;;;;;;;;;;5106505;28;19911;-81
2021/07/05 07:54:30;;;;;;;;;;;;;;;;;;5109906;28;19918;-78
2021/07/05 07:56:56;;;;;;;;;;;;;;;;;;5111037;28;19920;-79
2021/07/05 07:59:21;;;;;;;;;;;;;;;;;;5114962;27;20306;-79
2021/07/05 08:01:47;;;;;;;;;;;;;;;;;;5101448;28;20350;-80
2021/07/05 08:04:13;;;;;;;;;;;;;;;;;;5106452;28;19998;-79
2021/07/05 08:06:39;;;;;;;;;;;;;;;;;;5105009;28;20320;-79
2021/07/05 08:09:06;;;;;;;;;;;;;;;;;;5091689;28;20007;-80
2021/07/05 08:11:32;;;;;;;;;;;;;;;;;;5103921;28;20028;-79
2021/07/05 08:13:57;;;;;;;;;;;;;;;;;;5102653;28;20347;-87
2021/07/05 08:16:23;;;;;;;;;;;;;;;;;;5091152;28;20334;-83
2021/07/05 08:18:49;;;;;;;;;;;;;;;;;;5109403;28;19955;-85
2021/07/05 08:21:15;;;;;;;;;;;;;;;;;;5106918;28;19933;-81
2021/07/05 08:23:41;;;;;;;;;;;;;;;;;;5109916;28;19968;-82
2021/07/05 08:26:07;;;;;;;;;;;;;;;;;;5110682;28;20269;-82
2021/07/05 08:28:33;;;;;;;;;;;;;;;;;;5108128;28;19912;-84
2021/07/05 08:31:00;;;;;;;;;;;;;;;;;;5110405;28;19915;-82
2021/07/05 08:33:26;;;;;;;;;;;;;;;;;;5109255;28;20789;-84
2021/07/05 08:35:52;;;;;;;;;;;;;;;;;;5109719;28;20349;-83
2021/07/05 08:38:18;;;;;;;;;;;;;;;;;;5108644;28;19904;-83
2021/07/05 08:40:44;;;;;;;;;;;;;;;;;;5108551;28;20097;-83
2021/07/05 08:43:10;;;;;;;;;;;;;;;;;;5108532;28;19904;-82
2021/07/05 08:45:36;;;;;;;;;;;;;;;;;;5090935;28;19997;-83
2021/07/05 08:48:01;;;;;;;;;;;;;;;;;;5110044;28;20266;-83
2021/07/05 08:50:27;;;;;;;;;;;;;;;;;;5109664;28;19938;-83
2021/07/05 08:52:53;;;;;;;;;;;;;;;;;;5111343;28;19904;-82
2021/07/05 08:55:19;;;;;;;;;;;;;;;;;;5111658;28;19919;-83
2021/07/05 08:57:45;;;;;;;;;;;;;;;;;;5111344;28;19920;-82
2021/07/05 09:00:11;;;;;;;;;;;;;;;;;;5102333;28;20280;-82
2021/07/05 09:02:37;;;;;;;;;;;;;;;;;;5120133;28;19912;-84
2021/07/05 09:05:03;;;;;;;;;;;;;;;;;;5112679;28;19908;-83
2021/07/05 09:07:29;;;;;;;;;;;;;;;;;;5119234;28;19987;-82
2021/07/05 09:09:55;;;;;;;;;;;;;;;;;;5119502;28;19946;-81
2021/07/05 09:12:21;;;;;;;;;;;;;;;;;;5117043;28;19960;-82
2021/07/05 09:14:47;;;;;;;;;;;;;;;;;;5113972;28;20033;-82
2021/07/05 09:17:13;;;;;;;;;;;;;;;;;;5116021;28;19951;-82
2021/07/05 09:19:39;;;;;;;;;;;;;;;;;;5115010;28;19903;-82
2021/07/05 09:22:05;;;;;;;;;;;;;;;;;;5115334;28;19915;-83
2021/07/05 09:24:31;;;;;;;;;;;;;;;;;;5113072;28;20357;-83
2021/07/05 09:26:57;;;;;;;;;;;;;;;;;;5094293;28;20370;-83
2021/07/05 09:29:23;;;;;;;;;;;;;;;;;;5112952;28;19915;-82
2021/07/05 09:31:49;;;;;;;;;;;;;;;;;;5112391;28;20343;-83
2021/07/05 09:34:15;;;;;;;;;;;;;;;;;;5112300;28;19907;-83
2021/07/05 09:36:40;;;;;;;;;;;;;;;;;;5094945;28;19951;-82
2021/07/05 09:39:06;;;;;;;;;;;;;;;;;;5113432;28;19929;-82
2021/07/05 09:41:34;;;;;;;;;;;;;;;;;;5110958;27;19915;-82
2021/07/05 09:44:00;;;;;;;;;;;;;;;;;;5114072;28;19948;-84
2021/07/05 09:46:26;;;;;;;;;;;;;;;;;;5114313;28;20285;-83
2021/07/05 09:48:51;;;;;;;;;;;;;;;;;;5113325;28;19919;-82
2021/07/05 09:51:17;;;;;;;;;;;;;;;;;;5111241;28;19911;-82
2021/07/05 09:53:44;;;;;;;;;;;;;;;;;;5092161;28;19919;-83
2021/07/05 09:56:10;;;;;;;;;;;;;;;;;;5092503;28;19945;-85
2021/07/05 09:58:36;;;;;;;;;;;;;;;;;;5078854;28;19916;-83
2021/07/05 10:01:02;;;;;;;;;;;;;;;;;;5097228;28;20285;-83
2021/07/05 10:03:28;;;;;;;;;;;;;;;;;;5104229;27;20093;-82
2021/07/05 10:05:53;;;;;;;;;;;;;;;;;;5113544;27;19918;-82
2021/07/05 10:08:21;;;;;;;;;;;;;;;;;;5112283;28;20002;-82
2021/07/05 10:10:47;;;;;;;;;;;;;;;;;;5090550;28;19916;-81
2021/07/05 10:13:13;;;;;;;;;;;;;;;;;;5109493;28;19918;-83
2021/07/05 10:15:39;;;;;;;;;;;;;;;;;;5114552;28;19915;-83
2021/07/05 10:18:05;;;;;;;;;;;;;;;;;;5114413;28;20720;-84
2021/07/05 10:20:31;;;;;;;;;;;;;;;;;;5115620;28;19947;-85
2021/07/05 10:22:57;;;;;;;;;;;;;;;;;;5114441;28;19908;-84
2021/07/05 10:25:23;;;;;;;;;;;;;;;;;;5113571;28;20026;-83
2021/07/05 10:27:48;;;;;;;;;;;;;;;;;;5111239;28;19964;-82
2021/07/05 10:30:14;;;;;;;;;;;;;;;;;;5112427;28;19961;-82
2021/07/05 10:32:40;;;;;;;;;;;;;;;;;;5108266;28;19953;-79
2021/07/05 10:35:06;;;;;;;;;;;;;;;;;;5110815;28;19998;-80
2021/07/05 10:37:32;;;;;;;;;;;;;;;;;;5131067;27;20361;-82
2021/07/05 10:39:58;;;;;;;;;;;;;;;;;;5098516;28;19904;-79
2021/07/05 10:42:24;;;;;;;;;;;;;;;;;;5121985;27;19996;-81
2021/07/05 10:44:50;;;;;;;;;;;;;;;;;;5126661;27;19907;-80
2021/07/05 10:47:16;;;;;;;;;;;;;;;;;;5110693;27;19946;-82
2021/07/05 10:49:46;;;;;;;;;;;;;;;;;;5091302;28;20324;-82
2021/07/05 10:52:12;;;;;;;;;;;;;;;;;;5112465;28;20019;-84
2021/07/05 10:54:38;;;;;;;;;;;;;;;;;;5113849;28;19988;-82
2021/07/05 10:57:04;;;;;;;;;;;;;;;;;;5094195;28;19959;-82
2021/07/05 10:59:30;;;;;;;;;;;;;;;;;;5113083;28;20250;-82
2021/07/05 11:01:56;;;;;;;;;;;;;;;;;;5109347;28;19912;-81
2021/07/05 11:04:22;;;;;;;;;;;;;;;;;;5112799;28;19919;-81
2021/07/05 11:06:48;;;;;;;;;;;;;;;;;;5092700;28;19930;-82
2021/07/05 11:09:14;;;;;;;;;;;;;;;;;;5095942;28;20279;-81
2021/07/05 11:11:39;;;;;;;;;;;;;;;;;;5113533;28;19957;-82
2021/07/05 11:14:05;;;;;;;;;;;;;;;;;;5104529;28;20360;-82
2021/07/05 11:16:31;;;;;;;;;;;;;;;;;;5099638;28;20120;-80
2021/07/05 11:18:57;;;;;;;;;;;;;;;;;;5096347;28;19915;-81
2021/07/05 11:21:23;;;;;;;;;;;;;;;;;;5110720;28;19914;-83
2021/07/05 11:23:49;;;;;;;;;;;;;;;;;;5111995;28;20005;-78
2021/07/05 11:26:15;;;;;;;;;;;;;;;;;;5104613;28;19915;-78
2021/07/05 11:28:41;;;;;;;;;;;;;;;;;;5102980;28;19920;-78
2021/07/05 11:31:07;;;;;;;;;;;;;;;;;;5108700;28;20208;-76
2021/07/05 11:33:33;;;;;;;;;;;;;;;;;;5107359;28;19911;-75
2021/07/05 11:35:59;;;;;;;;;;;;;;;;;;5101371;28;19908;-77
2021/07/05 11:38:25;;;;;;;;;;;;;;;;;;5103624;28;20412;-78
2021/07/05 11:40:51;;;;;;;;;;;;;;;;;;5112000;28;19908;-79
2021/07/05 11:43:18;;;;;;;;;;;;;;;;;;5090040;28;19914;-79
2021/07/05 11:45:44;;;;;;;;;;;;;;;;;;5110391;28;20269;-80
2021/07/05 11:48:10;;;;;;;;;;;;;;;;;;5106921;28;19912;-78
2021/07/05 11:50:36;;;;;;;;;;;;;;;;;;5110874;28;19981;-80
2021/07/05 11:53:02;;;;;;;;;;;;;;;;;;5092977;28;19947;-79
2021/07/05 11:55:28;;;;;;;;;;;;;;;;;;5108664;28;19919;-78
2021/07/05 11:57:53;;;;;;;;;;;;;;;;;;5111465;28;20388;-80
2021/07/05 12:00:19;;;;;;;;;;;;;;;;;;5110235;28;19931;-79
2021/07/05 12:02:45;;;;;;;;;;;;;;;;;;5113235;28;19915;-80
2021/07/05 12:05:14;;;;;;;;;;;;;;;;;;5089282;28;19908;-78
2021/07/05 12:07:40;;;;;;;;;;;;;;;;;;5111201;28;19911;-80
2021/07/05 12:10:06;;;;;;;;;;;;;;;;;;5111307;28;19918;-82
2021/07/05 12:12:31;;;;;;;;;;;;;;;;;;5092585;28;19996;-80
2021/07/05 12:14:57;;;;;;;;;;;;;;;;;;5109120;28;19907;-80
2021/07/05 12:17:23;;;;;;;;;;;;;;;;;;5110494;28;19930;-81
2021/07/05 12:19:52;;;;;;;;;;;;;;;;;;5112664;28;19904;-81
2021/07/05 12:22:19;;;;;;;;;;;;;;;;;;5110328;28;20330;-81
2021/07/05 12:24:45;;;;;;;;;;;;;;;;;;5110931;28;20326;-81
2021/07/05 12:27:11;;;;;;;;;;;;;;;;;;5111287;28;19904;-82
2021/07/05 12:29:43;;;;;;;;;;;;;;;;;;5110039;28;19916;-82
2021/07/05 12:32:10;;;;;;;;;;;;;;;;;;5103031;28;19915;-80
2021/07/05 12:34:37;;;;;;;;;;;;;;;;;;5098614;28;20038;-79
2021/07/05 12:37:03;;;;;;;;;;;;;;;;;;5099157;28;19958;-79
2021/07/05 12:39:29;;;;;;;;;;;;;;;;;;5080619;28;19955;-79
2021/07/05 12:41:55;;;;;;;;;;;;;;;;;;5100858;28;20345;-79
2021/07/05 12:44:21;;;;;;;;;;;;;;;;;;5101397;28;19965;-79
2021/07/05 12:46:50;;;;;;;;;;;;;;;;;;5102900;28;19907;-80
2021/07/05 12:49:16;;;;;;;;;;;;;;;;;;5102390;28;19923;-79
2021/07/05 12:51:42;;;;;;;;;;;;;;;;;;5082650;28;19972;-81
2021/07/05 12:54:08;;;;;;;;;;;;;;;;;;5101331;28;19912;-80
2021/07/05 12:56:34;;;;;;;;;;;;;;;;;;5102458;28;19912;-79
2021/07/05 12:59:00;;;;;;;;;;;;;;;;;;5102217;28;19927;-80
2021/07/05 13:01:26;;;;;;;;;;;;;;;;;;5106613;28;20006;-80
2021/07/05 13:03:52;;;;;;;;;;;;;;;;;;5104295;28;20322;-81
2021/07/05 13:06:18;;;;;;;;;;;;;;;;;;5103108;28;19908;-80
2021/07/05 13:08:44;;;;;;;;;;;;;;;;;;5099674;28;19924;-81
2021/07/05 13:11:10;;;;;;;;;;;;;;;;;;5105180;28;20338;-79
2021/07/05 13:13:36;;;;;;;;;;;;;;;;;;5101186;28;19999;-78
2021/07/05 13:16:02;;;;;;;;;;;;;;;;;;5101334;28;19934;-80
2021/07/05 13:18:27;;;;;;;;;;;;;;;;;;5103905;28;20366;-79
2021/07/05 13:20:53;;;;;;;;;;;;;;;;;;5101366;28;19915;-80
2021/07/05 13:23:19;;;;;;;;;;;;;;;;;;5102337;28;19916;-77
2021/07/05 13:25:45;;;;;;;;;;;;;;;;;;5105415;28;20387;-82
2021/07/05 13:28:11;;;;;;;;;;;;;;;;;;5109810;28;20353;-81
2021/07/05 13:30:37;;;;;;;;;;;;;;;;;;5109414;28;21671;-81
2021/07/05 13:33:03;;;;;;;;;;;;;;;;;;5110097;28;19908;-81
2021/07/05 13:35:29;;;;;;;;;;;;;;;;;;5108962;28;19958;-82
2021/07/05 13:37:58;;;;;;;;;;;;;;;;;;5110378;28;20299;-83
2021/07/05 13:40:24;;;;;;;;;;;;;;;;;;5110228;28;19951;-82
2021/07/05 13:42:51;;;;;;;;;;;;;;;;;;5109972;28;20380;-82
2021/07/05 13:45:17;;;;;;;;;;;;;;;;;;5112083;28;20153;-82
2021/07/05 13:47:43;;;;;;;;;;;;;;;;;;5113332;28;19916;-83
2021/07/05 13:50:09;;;;;;;;;;;;;;;;;;5113038;28;20558;-81
2021/07/05 13:52:35;;;;;;;;;;;;;;;;;;5094911;28;19954;-81
2021/07/05 13:55:01;;;;;;;;;;;;;;;;;;5111491;28;19953;-83
2021/07/05 13:57:27;;;;;;;;;;;;;;;;;;5094951;28;19923;-83
2021/07/05 13:59:53;;;;;;;;;;;;;;;;;;5113977;28;20334;-84
2021/07/05 14:02:19;;;;;;;;;;;;;;;;;;5093630;28;19908;-84
2021/07/05 14:04:47;;;;;;;;;;;;;;;;;;5114105;28;19904;-82
2021/07/05 14:07:13;;;;;;;;;;;;;;;;;;5112939;28;19911;-83
2021/07/05 14:09:39;;;;;;;;;;;;;;;;;;5112634;28;19912;-83
2021/07/05 14:12:05;;;;;;;;;;;;;;;;;;5113185;28;19930;-83
2021/07/05 14:14:31;;;;;;;;;;;;;;;;;;5113959;28;19956;-83
2021/07/05 14:16:58;;;;;;;;;;;;;;;;;;5112103;28;19908;-81
2021/07/05 14:19:24;;;;;;;;;;;;;;;;;;5112991;28;19903;-80
2021/07/05 14:21:50;;;;;;;;;;;;;;;;;;5112586;28;19953;-84
2021/07/05 14:24:17;;;;;;;;;;;;;;;;;;5094606;28;20037;-82
2021/07/05 14:26:43;;;;;;;;;;;;;;;;;;5113824;28;19990;-82
2021/07/05 14:29:09;;;;;;;;;;;;;;;;;;5112226;28;20485;-83
2021/07/05 14:31:35;;;;;;;;;;;;;;;;;;5094353;28;19919;-83
2021/07/05 14:34:01;;;;;;;;;;;;;;;;;;5112688;28;19939;-83
2021/07/05 14:36:27;;;;;;;;;;;;;;;;;;5113424;28;19907;-85
2021/07/05 14:38:53;;;;;;;;;;;;;;;;;;5111057;28;20143;-83
2021/07/05 14:41:19;;;;;;;;;;;;;;;;;;5093839;28;20346;-83
2021/07/05 14:43:45;;;;;;;;;;;;;;;;;;5112809;28;20437;-84
2021/07/05 14:46:11;;;;;;;;;;;;;;;;;;5114057;28;19918;-82
2021/07/05 14:48:37;;;;;;;;;;;;;;;;;;5114888;28;20376;-83
2021/07/05 14:51:02;;;;;;;;;;;;;;;;;;5118136;28;19911;-83
2021/07/05 14:53:28;;;;;;;;;;;;;;;;;;5112694;28;19915;-85
2021/07/05 14:55:54;;;;;;;;;;;;;;;;;;5108482;28;19908;-82
2021/07/05 14:58:20;;;;;;;;;;;;;;;;;;5096475;28;19998;-81
2021/07/05 15:00:46;;;;;;;;;;;;;;;;;;5120761;28;19907;-82
2021/07/05 15:03:12;;;;;;;;;;;;;;;;;;5099458;28;19904;-82
2021/07/05 15:05:38;;;;;;;;;;;;;;;;;;5105992;28;19935;-83
2021/07/05 15:08:04;;;;;;;;;;;;;;;;;;5112306;28;20342;-83
2021/07/05 15:10:30;;;;;;;;;;;;;;;;;;5112669;28;19922;-82
2021/07/05 15:12:55;;;;;;;;;;;;;;;;;;5112070;28;19910;-81
2021/07/05 15:15:21;;;;;;;;;;;;;;;;;;5093896;28;19908;-82
2021/07/05 15:17:48;;;;;;;;;;;;;;;;;;5112768;28;19904;-83
2021/07/05 15:20:14;;;;;;;;;;;;;;;;;;5111595;28;19916;-83
2021/07/05 15:22:39;;;;;;;;;;;;;;;;;;5114495;28;19907;-83
2021/07/05 15:25:05;;;;;;;;;;;;;;;;;;5121400;28;19918;-81
2021/07/05 15:27:31;;;;;;;;;;;;;;;;;;5112462;28;20323;-81
2021/07/05 15:29:57;;;;;;;;;;;;;;;;;;5104272;28;19969;-82
2021/07/05 15:32:23;;;;;;;;;;;;;;;;;;5110672;28;20010;-80
2021/07/05 15:34:49;;;;;;;;;;;;;;;;;;5110985;28;20017;-82
2021/07/05 15:37:15;;;;;;;;;;;;;;;;;;5112849;28;19904;-78
2021/07/05 15:39:41;;;;;;;;;;;;;;;;;;5112473;28;19908;-80
2021/07/05 15:42:07;;;;;;;;;;;;;;;;;;5092959;28;19915;-82
2021/07/05 15:44:33;;;;;;;;;;;;;;;;;;5111702;28;20010;-80
2021/07/05 15:46:59;;;;;;;;;;;;;;;;;;5099286;28;19931;-80
2021/07/05 15:49:24;;;;;;;;;;;;;;;;;;5106339;28;20360;-82
2021/07/05 15:51:50;;;;;;;;;;;;;;;;;;5093149;28;19908;-81
2021/07/05 15:54:16;;;;;;;;;;;;;;;;;;5110879;28;19908;-81
2021/07/05 15:56:42;;;;;;;;;;;;;;;;;;5110265;28;19986;-81
2021/07/05 15:59:08;;;;;;;;;;;;;;;;;;5111128;28;20277;-85
2021/07/05 16:01:34;;;;;;;;;;;;;;;;;;5113146;28;19904;-85
2021/07/05 16:04:00;;;;;;;;;;;;;;;;;;5111567;28;19907;-83
2021/07/05 16:06:26;;;;;;;;;;;;;;;;;;5110372;28;20389;-83
2021/07/05 16:08:52;;;;;;;;;;;;;;;;;;5111374;28;19911;-83
2021/07/05 16:11:18;;;;;;;;;;;;;;;;;;5111914;28;20265;-84
2021/07/05 16:13:44;;;;;;;;;;;;;;;;;;5111446;28;19946;-83
2021/07/05 16:16:10;;;;;;;;;;;;;;;;;;5111436;28;20322;-83
2021/07/05 16:18:35;;;;;;;;;;;;;;;;;;5111529;28;19911;-83
2021/07/05 16:21:02;;;;;;;;;;;;;;;;;;5110528;28;19914;-83
2021/07/05 16:23:28;;;;;;;;;;;;;;;;;;5111511;28;20004;-83
2021/07/05 16:25:53;;;;;;;;;;;;;;;;;;5111390;28;20005;-84
2021/07/05 16:28:19;;;;;;;;;;;;;;;;;;5110962;28;19912;-85
2021/07/05 16:30:45;;;;;;;;;;;;;;;;;;5110781;28;19908;-83
2021/07/05 16:33:11;;;;;;;;;;;;;;;;;;5111180;28;20320;-85
2021/07/05 16:35:37;;;;;;;;;;;;;;;;;;5110815;28;20323;-85
2021/07/05 16:38:03;;;;;;;;;;;;;;;;;;5111968;28;20251;-83